• Join FlightAware (Why Join?)
  • Login
  • US Flag GB Flag 
22:41 EST


 

Airport Tracker/Info


-or-


 

Live Flight TrackerFlight Track Log ✈ N606FT ✈ 16-Dec-2013 ✈ KPGD - KISM

Flight Track Log - Related Links

Times and Time Zones

All times are in EST time to prevent confusion due to time zone crossing. See the N606FT flight status page for this flight to view local times or setup timezone preferences in your user account.

Time Position Orientation Groundspeed Altitude Reporting Facility
EST Latitude Longitude Course Direction KTS MPH feet Rate Location/Type
11:26 27.0550 -81.9267 20° North 90 104 3,000  Level Miami Center
11:27 27.0764 -81.9183 19° North 90 104 3,600 540 Climbing Miami Center
11:28 27.1017 -81.9103 16° North 85 98 4,100 480 Climbing Miami Center
11:29 27.1247 -81.9064 North 85 98 4,600 420 Climbing Miami Center
11:30 27.1503 -81.8911 28° Northeast 91 105 5,000 420 Climbing Miami Center
11:31 27.2757 -81.8482 20° North  Level Estimated
11:31 27.1758 -81.8806 20° North 91 105 5,500  Level Miami Center
11:32 27.2053 -81.8703 17° North 91 105 5,500 -60 Level Miami Center
11:33 27.2308 -81.8528 31° Northeast 91 105 5,400  Descending Miami Center
11:34 27.2586 -81.8400 22° Northeast 96 110 5,500 60 Climbing Miami Center
11:35 27.2858 -81.8317 15° North 101 116 5,600  Climbing Miami Center
11:36 27.3133 -81.8236 15° North 101 116 5,600  Level Miami Center
11:37 27.3408 -81.8156 15° North 96 110 5,600  Level Miami Center
11:38 27.3681 -81.8072 15° North 96 110 5,600 -60 Level Miami Center
11:39 27.3956 -81.8014 11° North 96 110 5,500 -60 Descending Miami Center
11:40 27.4208 -81.7931 16° North 96 110 5,500  Level Miami Center
11:41 27.4461 -81.7850 16° North 96 110 5,600  Climbing Miami Center
11:42 27.4717 -81.7742 21° North 96 110 5,600  Level Miami Center
11:43 27.4969 -81.7636 20° North 91 105 5,600 -60 Level Miami Center
11:44 27.5244 -81.7531 19° North 91 105 5,500 -60 Descending Miami Center
11:45 27.5497 -81.7447 16° North 91 105 5,500  Level Miami Center
11:46 27.5733 -81.7294 30° Northeast 91 105 5,500  Level Miami Center
11:47 27.5964 -81.7211 18° North 91 105 5,500  Level Miami Center
11:48 27.6197 -81.7103 22° Northeast 91 105 5,500  Level Miami Center
11:49 27.6472 -81.6997 19° North 91 105 5,600  Climbing Miami Center
11:50 27.6686 -81.6889 24° Northeast 91 105 5,500  Descending Miami Center
11:51 27.6981 -81.6761 21° North 91 105 5,600  Climbing Miami Center
11:52 27.7236 -81.6678 16° North 91 105 5,600  Level Miami Center
11:53 27.7489 -81.6572 20° North 91 105 5,600 -60 Level Miami Center
11:54 27.7722 -81.6489 18° North 91 105 5,500  Descending Miami Center
11:55 27.7975 -81.6406 16° North 91 105 5,600  Climbing Miami Center
11:56 27.8228 -81.6322 16° North 91 105 5,600  Level Miami Center
11:57 27.8503 -81.6239 15° North 91 105 5,600  Level Miami Center
11:59 27.9167 -81.6000 18° North 97 112 5,600  Level Orlando TRACON
12:00 27.9333 -81.6000 360° North 96 110 5,600  Level Orlando TRACON
12:01 27.9667 -81.6000 360° North 96 110 5,600 -300 Level Orlando TRACON
12:02 27.9833 -81.5833 41° Northeast 99 114 5,100 -660 Descending Orlando TRACON
12:03 28.0167 -81.5833 360° North 102 117 4,300 -840 Descending Orlando TRACON
12:04 28.0333 -81.5667 41° Northeast 106 122 3,500 -420 Descending Orlando TRACON
12:05 28.0667 -81.5500 24° Northeast 101 116 3,500  Level Orlando TRACON
12:06 28.0833 -81.5333 41° Northeast 97 112 3,500 -180 Level Orlando TRACON
12:07 28.1167 -81.5167 24° Northeast 99 114 3,200 -360 Descending Orlando TRACON
12:08 28.1333 -81.5000 41° Northeast 96 110 2,800 -480 Descending Orlando TRACON
12:09 28.1667 -81.5000 360° North 90 104 2,200 -360 Descending Orlando TRACON
12:10 28.1833 -81.5000 360° North 97 112 2,100 -300 Descending Orlando TRACON
12:11 28.2167 -81.5000 360° North 96 110 1,600 -540 Descending Orlando TRACON